createdAt,value
2023-05-06T00:01:05.839Z,7.30
2023-05-06T00:03:32.639Z,6.65
2023-05-06T00:05:59.494Z,6.90
2023-05-06T00:08:26.243Z,6.47
2023-05-06T00:10:52.776Z,7.12
2023-05-06T00:13:19.403Z,6.85
2023-05-06T00:15:46.012Z,7.53
2023-05-06T00:18:33.986Z,7.12
2023-05-06T00:21:18.982Z,6.78
2023-05-06T00:23:45.596Z,6.40
2023-05-06T00:26:12.357Z,7.20
2023-05-06T00:28:39.078Z,6.57
2023-05-06T00:31:05.662Z,6.12
2023-05-06T00:33:32.186Z,6.40
2023-05-06T00:35:58.739Z,6.25
2023-05-06T00:38:26.067Z,6.70
2023-05-06T00:40:52.630Z,6.75
2023-05-06T00:43:19.180Z,6.07
2023-05-06T00:45:46.093Z,6.10
2023-05-06T00:48:12.823Z,6.22
2023-05-06T00:50:40.693Z,6.97
2023-05-06T00:53:09.623Z,6.45
2023-05-06T00:55:36.705Z,6.22
2023-05-06T00:58:04.566Z,6.53
2023-05-06T01:00:32.216Z,6.20
2023-05-06T01:02:58.871Z,5.93
2023-05-06T01:08:14.833Z,5.93
2023-05-06T01:10:49.841Z,6.37
2023-05-06T01:13:35.976Z,6.50
2023-05-06T01:16:05.020Z,6.40
2023-05-06T01:18:32.730Z,6.12
2023-05-06T01:22:02.898Z,6.57
2023-05-06T01:25:08.623Z,6.15
2023-05-06T01:27:35.408Z,6.20
2023-05-06T01:30:02.588Z,5.85
2023-05-06T01:32:49.470Z,6.45
2023-05-06T01:35:22.302Z,6.25
2023-05-06T01:38:13.227Z,5.82
2023-05-06T01:40:42.637Z,5.97
2023-05-06T01:43:11.726Z,6.45
2023-05-06T01:45:40.485Z,6.72
2023-05-06T01:48:07.817Z,6.50
2023-05-06T01:50:35.765Z,6.12
2023-05-06T01:53:03.388Z,6.32
2023-05-06T01:55:35.243Z,6.12
2023-05-06T01:58:01.783Z,6.43
2023-05-06T02:00:28.367Z,6.53
2023-05-06T02:02:55.032Z,5.95
2023-05-06T02:05:27.670Z,6.25
2023-05-06T02:08:03.296Z,6.75
2023-05-06T02:10:29.968Z,6.97
2023-05-06T02:12:57.468Z,6.55
2023-05-06T02:15:24.034Z,6.30
2023-05-06T02:17:50.920Z,6.35
2023-05-06T02:20:17.469Z,6.53
2023-05-06T02:22:44.013Z,6.55
2023-05-06T02:27:54.633Z,6.50
2023-05-06T02:30:25.201Z,6.78
2023-05-06T02:32:52.024Z,6.53
2023-05-06T02:35:18.616Z,7.60
2023-05-06T02:37:45.161Z,7.32
2023-05-06T02:40:27.178Z,6.80
2023-05-06T02:43:12.983Z,6.80
2023-05-06T02:45:41.119Z,6.65
2023-05-06T02:48:07.690Z,5.85
2023-05-06T02:50:35.393Z,6.80
2023-05-06T02:53:02.049Z,6.55
2023-05-06T02:55:28.645Z,6.47
2023-05-06T02:57:55.500Z,7.85
2023-05-06T03:00:25.466Z,8.02
2023-05-06T03:02:52.059Z,7.65
2023-05-06T03:05:18.884Z,7.25
2023-05-06T03:07:45.423Z,7.57
2023-05-06T03:10:18.031Z,7.00
2023-05-06T03:12:56.826Z,7.28
2023-05-06T03:15:23.660Z,7.70
2023-05-06T03:17:50.357Z,6.95
2023-05-06T03:20:17.230Z,7.57
2023-05-06T03:22:43.772Z,6.78
2023-05-06T03:25:10.539Z,6.85
2023-05-06T03:27:37.280Z,7.20
2023-05-06T03:50:14.407Z,7.53
2023-05-06T03:52:41.016Z,7.15
2023-05-06T03:55:08.290Z,7.20
2023-05-06T03:57:35.234Z,6.97
2023-05-06T04:00:01.784Z,7.43
2023-05-06T04:02:29.470Z,7.00
2023-05-06T04:04:56.329Z,6.68
2023-05-06T04:07:22.851Z,7.05
2023-05-06T04:09:49.669Z,6.95
2023-05-06T04:12:16.228Z,6.57
2023-05-06T04:14:42.786Z,6.62
2023-05-06T04:17:09.396Z,7.12
2023-05-06T04:19:35.938Z,6.75
2023-05-06T04:22:02.529Z,6.45
2023-05-06T04:24:29.421Z,6.93
2023-05-06T04:26:56.270Z,6.72
2023-05-06T04:29:23.159Z,6.62
2023-05-06T04:31:49.721Z,6.93
2023-05-06T04:34:16.667Z,6.62
2023-05-06T04:36:43.425Z,7.47
2023-05-06T04:39:10.566Z,6.82
2023-05-06T04:41:37.762Z,6.95
2023-05-06T04:44:04.820Z,7.07
2023-05-06T04:46:31.396Z,6.97
2023-05-06T04:48:58.514Z,6.97
2023-05-06T04:51:25.246Z,7.00
2023-05-06T04:53:52.680Z,7.18
2023-05-06T04:56:19.282Z,7.32
2023-05-06T04:58:55.011Z,6.87
2023-05-06T05:01:23.620Z,6.95
2023-05-06T05:03:50.375Z,6.65
2023-05-06T05:06:17.020Z,7.35
2023-05-06T05:08:43.583Z,7.18
2023-05-06T05:11:10.394Z,7.50
2023-05-06T05:13:37.352Z,7.05
2023-05-06T05:16:04.324Z,7.05
2023-05-06T05:23:57.064Z,7.10
2023-05-06T05:26:23.652Z,6.57
2023-05-06T05:28:50.300Z,6.43
2023-05-06T05:31:16.925Z,6.65
2023-05-06T05:33:52.725Z,6.85
2023-05-06T05:36:43.698Z,6.97
2023-05-06T05:39:15.862Z,7.50
2023-05-06T05:41:42.446Z,7.70
2023-05-06T06:08:26.481Z,7.47
2023-05-06T06:10:52.989Z,8.10
2023-05-06T06:13:19.713Z,7.72
2023-05-06T06:15:46.559Z,7.65
2023-05-06T06:18:13.229Z,7.72
2023-05-06T06:20:39.779Z,8.40
2023-05-06T06:23:26.284Z,8.15
2023-05-06T06:26:23.774Z,7.62
2023-05-06T06:28:50.302Z,7.60
2023-05-06T06:31:16.930Z,7.57
2023-05-06T06:33:43.501Z,7.85
2023-05-06T06:36:10.515Z,7.90
2023-05-06T06:38:37.130Z,8.38
2023-05-06T06:41:04.468Z,8.55
2023-05-06T06:43:31.135Z,7.75
2023-05-06T06:45:57.785Z,7.95
2023-05-06T06:48:24.481Z,8.10
2023-05-06T06:50:51.049Z,7.60
2023-05-06T06:53:17.632Z,7.80
2023-05-06T06:55:45.018Z,8.32
2023-05-06T06:58:11.689Z,7.35
2023-05-06T07:00:38.269Z,8.27
2023-05-06T07:03:05.126Z,8.10
2023-05-06T07:05:31.711Z,8.20
2023-05-06T07:07:58.299Z,8.25
2023-05-06T07:10:24.893Z,8.25
2023-05-06T07:12:51.857Z,8.60
2023-05-06T07:15:18.502Z,8.32
2023-05-06T07:17:45.161Z,8.80
2023-05-06T07:20:12.417Z,8.10
2023-05-06T07:22:39.180Z,8.60
2023-05-06T07:25:06.269Z,8.25
2023-05-06T07:27:33.047Z,8.35
2023-05-06T07:30:00.394Z,7.75
2023-05-06T07:32:27.016Z,8.52
2023-05-06T07:34:53.569Z,8.13
2023-05-06T07:37:20.223Z,8.02
2023-05-06T07:39:46.849Z,8.32
2023-05-06T07:42:13.471Z,7.43
2023-05-06T07:44:40.440Z,8.50
2023-05-06T07:47:07.353Z,7.50
2023-05-06T07:49:35.236Z,8.43
2023-05-06T07:52:03.453Z,8.48
2023-05-06T07:54:31.534Z,7.32
2023-05-06T07:56:58.241Z,7.53
2023-05-06T07:59:24.870Z,7.50
2023-05-06T08:01:51.606Z,8.15
2023-05-06T08:04:18.198Z,8.18
2023-05-06T08:06:44.741Z,8.43
2023-05-06T08:09:17.030Z,8.07
2023-05-06T08:11:46.477Z,8.65
2023-05-06T08:14:13.102Z,8.55
2023-05-06T08:16:39.906Z,8.27
2023-05-06T08:19:06.909Z,8.55
2023-05-06T08:21:33.443Z,9.07
2023-05-06T08:24:00.127Z,9.15
2023-05-06T08:26:26.687Z,8.05
2023-05-06T08:28:53.290Z,8.00
2023-05-06T08:31:19.880Z,7.68
2023-05-06T08:33:46.463Z,8.85
2023-05-06T08:36:13.028Z,8.05
2023-05-06T08:38:39.541Z,7.60
2023-05-06T08:41:13.692Z,7.55
2023-05-06T08:43:46.098Z,7.75
2023-05-06T08:46:13.654Z,8.18
2023-05-06T08:48:41.485Z,8.02
2023-05-06T08:51:08.932Z,8.38
2023-05-06T08:53:36.570Z,7.93
2023-05-06T08:56:06.898Z,8.45
2023-05-06T08:58:40.529Z,8.68
2023-05-06T09:01:07.283Z,8.98
2023-05-06T09:03:34.008Z,7.87
2023-05-06T09:06:00.805Z,6.85
2023-05-06T09:08:27.357Z,6.90
2023-05-06T09:10:53.980Z,6.60
2023-05-06T09:13:20.693Z,7.40
2023-05-06T09:15:49.019Z,8.20
2023-05-06T09:18:17.075Z,10.25
2023-05-06T09:20:49.454Z,7.95
2023-05-06T09:23:17.711Z,8.60
2023-05-06T09:25:46.395Z,7.65
2023-05-06T09:28:14.058Z,7.97
2023-05-06T09:30:42.467Z,9.65
2023-05-06T09:33:09.674Z,8.57
2023-05-06T09:35:38.935Z,8.05
2023-05-06T09:38:07.166Z,7.68
2023-05-06T09:40:37.971Z,7.50
2023-05-06T09:43:05.855Z,5.60
2023-05-06T09:45:33.078Z,4.72
2023-05-06T09:48:01.131Z,4.45
2023-05-06T09:50:28.283Z,5.95
2023-05-06T09:52:56.010Z,5.07
2023-05-06T09:55:26.546Z,5.15
2023-05-06T10:00:30.691Z,4.72
2023-05-06T10:02:58.832Z,5.50
2023-05-06T10:05:27.599Z,5.60
2023-05-06T10:10:29.917Z,4.87
2023-05-06T10:13:21.565Z,4.20
2023-05-06T10:16:40.188Z,4.47
2023-05-06T10:19:17.402Z,3.90
2023-05-06T10:21:50.606Z,3.87
2023-05-06T10:24:23.280Z,3.62
2023-05-06T10:26:54.857Z,4.80
2023-05-06T10:29:24.828Z,4.85
2023-05-06T10:31:56.928Z,4.60
2023-05-06T10:34:25.596Z,4.22
2023-05-06T10:36:57.440Z,3.85
2023-05-06T10:39:24.938Z,3.90
2023-05-06T10:41:51.494Z,4.12
2023-05-06T10:44:18.050Z,3.90
2023-05-06T10:47:10.721Z,3.00
2023-05-06T10:49:37.267Z,3.50
2023-05-06T10:52:12.952Z,3.30
2023-05-06T10:54:49.338Z,3.67
2023-05-06T10:57:16.031Z,3.30
2023-05-06T10:59:47.286Z,3.47
2023-05-06T11:04:41.625Z,3.70
2023-05-06T11:07:15.824Z,3.50
2023-05-06T11:09:59.358Z,3.30
2023-05-06T11:17:24.049Z,3.47
2023-05-06T11:20:22.906Z,3.42
2023-05-06T11:22:49.681Z,3.20
2023-05-06T11:25:43.205Z,3.22
2023-05-06T11:30:54.878Z,3.58
2023-05-06T11:33:24.119Z,3.72
2023-05-06T11:35:50.726Z,3.20
2023-05-06T11:38:17.570Z,3.20
2023-05-06T11:40:44.194Z,3.00
2023-05-06T11:43:19.810Z,2.80
2023-05-06T11:45:48.323Z,3.00
2023-05-06T11:48:16.138Z,3.33
2023-05-06T11:50:47.649Z,2.78
2023-05-06T11:53:37.221Z,3.10
2023-05-06T11:56:58.100Z,3.25
2023-05-06T11:59:34.481Z,3.20
2023-05-06T12:02:03.907Z,4.60
2023-05-06T12:04:47.500Z,3.85
2023-05-06T12:07:16.338Z,3.30
2023-05-06T12:09:46.605Z,3.47
2023-05-06T12:15:10.139Z,3.45
2023-05-06T12:17:36.938Z,3.22
2023-05-06T12:20:04.545Z,3.28
2023-05-06T12:29:39.695Z,3.05
2023-05-06T12:32:10.773Z,4.28
2023-05-06T12:34:41.427Z,3.58
2023-05-06T12:37:11.594Z,3.47
2023-05-06T12:39:39.642Z,3.45
2023-05-06T12:44:46.609Z,3.40
2023-05-06T12:47:24.321Z,4.17
2023-05-06T12:49:53.716Z,5.00
2023-05-06T12:52:22.612Z,4.00
2023-05-06T12:54:49.822Z,3.85
2023-05-06T12:57:16.677Z,3.80
2023-05-06T13:00:07.466Z,3.42
2023-05-06T13:05:09.673Z,3.00
2023-05-06T13:07:36.292Z,2.87
2023-05-06T13:10:03.615Z,2.55
2023-05-06T13:12:30.200Z,3.10
2023-05-06T13:14:56.757Z,2.80
2023-05-06T13:17:23.664Z,3.20
2023-05-06T13:19:51.091Z,2.75
2023-05-06T13:22:17.887Z,2.80
2023-05-06T13:24:44.451Z,2.85
2023-05-06T13:27:11.596Z,3.15
2023-05-06T13:29:38.630Z,3.03
2023-05-06T13:32:07.923Z,2.65
2023-05-06T13:34:35.322Z,2.58
2023-05-06T13:37:01.914Z,2.80
2023-05-06T13:39:28.535Z,2.78
2023-05-06T13:41:55.233Z,2.53
2023-05-06T13:44:22.294Z,3.10
2023-05-06T13:46:48.988Z,3.00
2023-05-06T13:49:15.904Z,3.15
2023-05-06T13:51:42.602Z,3.00
2023-05-06T13:54:09.269Z,3.83
2023-05-06T13:56:36.139Z,4.03
2023-05-06T13:59:02.717Z,3.80
2023-05-06T14:01:29.284Z,3.85
2023-05-06T14:03:55.883Z,4.10
2023-05-06T14:06:22.440Z,3.50
2023-05-06T14:08:49.039Z,4.20
2023-05-06T14:11:15.654Z,3.33
2023-05-06T14:13:42.199Z,3.35
2023-05-06T14:16:08.833Z,4.20
2023-05-06T14:18:36.564Z,4.10
2023-05-06T14:21:03.688Z,4.03
2023-05-06T14:23:30.483Z,4.90
2023-05-06T14:25:57.402Z,4.35
2023-05-06T14:28:23.935Z,4.22
2023-05-06T14:30:51.438Z,4.70
2023-05-06T14:33:18.002Z,4.35
2023-05-06T14:35:46.159Z,4.30
2023-05-06T14:38:12.815Z,4.65
2023-05-06T14:40:39.443Z,4.53
2023-05-06T14:43:07.622Z,4.30
2023-05-06T14:45:34.557Z,4.50
2023-05-06T14:48:01.409Z,4.37
2023-05-06T14:50:28.017Z,4.10
2023-05-06T14:52:54.560Z,3.83
2023-05-06T14:55:21.367Z,4.15
2023-05-06T14:57:48.181Z,3.92
2023-05-06T15:00:16.038Z,4.47
2023-05-06T15:02:42.770Z,4.15
2023-05-06T15:05:10.831Z,4.57
2023-05-06T15:07:37.943Z,5.05
2023-05-06T15:10:05.195Z,5.00
2023-05-06T15:12:33.504Z,4.82
2023-05-06T15:15:00.073Z,4.82
2023-05-06T15:17:26.644Z,5.15
2023-05-06T15:19:53.554Z,4.60
2023-05-06T15:22:20.087Z,5.28
2023-05-06T15:24:46.962Z,4.82
2023-05-06T15:27:13.679Z,4.68
2023-05-06T15:29:40.277Z,5.10
2023-05-06T15:32:07.361Z,4.93
2023-05-06T15:34:34.127Z,4.90
2023-05-06T15:37:01.799Z,4.55
2023-05-06T15:39:28.879Z,3.72
2023-05-06T15:41:58.252Z,4.62
2023-05-06T15:46:53.260Z,4.50
2023-05-06T15:49:48.939Z,4.57
2023-05-06T15:52:06.430Z,4.50
2023-05-06T15:54:36.154Z,4.95
2023-05-06T15:57:07.176Z,4.00
2023-05-06T15:59:34.144Z,3.87
2023-05-06T16:02:26.344Z,4.62
2023-05-06T16:04:47.773Z,4.30
2023-05-06T16:07:15.258Z,4.55
2023-05-06T16:09:42.761Z,4.05
2023-05-06T16:12:10.062Z,4.40
2023-05-06T16:14:36.700Z,4.10
2023-05-06T16:17:03.554Z,4.03
2023-05-06T16:19:34.976Z,3.55
2023-05-06T16:22:02.286Z,3.30
2023-05-06T16:24:28.863Z,3.70
2023-05-06T16:26:58.236Z,4.00
2023-05-06T16:29:25.035Z,4.15
2023-05-06T16:31:51.653Z,3.87
2023-05-06T16:34:18.305Z,4.18
2023-05-06T16:36:45.956Z,4.57
2023-05-06T16:39:12.591Z,4.20
2023-05-06T16:41:39.186Z,4.30
2023-05-06T16:44:05.834Z,3.90
2023-05-06T16:46:33.273Z,4.20
2023-05-06T16:48:59.933Z,4.03
2023-05-06T16:51:29.621Z,3.90
2023-05-06T16:53:56.340Z,3.67
2023-05-06T16:56:22.981Z,3.85
2023-05-06T16:58:49.601Z,4.30
2023-05-06T17:01:16.323Z,5.10
2023-05-06T17:03:43.029Z,4.30
2023-05-06T17:06:09.664Z,4.50
2023-05-06T17:08:37.243Z,5.30
2023-05-06T17:11:07.044Z,4.72
2023-05-06T17:13:34.136Z,5.37
2023-05-06T17:16:00.941Z,5.28
2023-05-06T17:18:27.540Z,5.15
2023-05-06T17:20:56.639Z,5.43
2023-05-06T17:23:24.322Z,4.93
2023-05-06T17:25:51.572Z,5.53
2023-05-06T17:28:20.598Z,6.80
2023-05-06T17:30:47.178Z,5.60
2023-05-06T17:33:13.893Z,6.35
2023-05-06T17:35:40.515Z,6.90
2023-05-06T17:38:07.797Z,7.53
2023-05-06T17:40:34.488Z,7.35
2023-05-06T17:43:01.079Z,7.40
2023-05-06T17:45:28.581Z,8.48
2023-05-06T17:47:56.485Z,7.87
2023-05-06T17:50:23.471Z,8.60
2023-05-06T17:52:52.338Z,7.35
2023-05-06T17:55:21.530Z,7.05
2023-05-06T17:57:48.644Z,6.62
2023-05-06T18:00:16.910Z,6.80
2023-05-06T18:02:44.485Z,7.53
2023-05-06T18:05:11.911Z,7.35
2023-05-06T18:07:39.145Z,8.00
2023-05-06T18:10:06.579Z,6.93
2023-05-06T18:12:33.269Z,8.35
2023-05-06T18:15:00.729Z,8.40
2023-05-06T18:17:27.404Z,8.10
2023-05-06T18:19:54.067Z,8.07
2023-05-06T18:22:20.629Z,8.20
2023-05-06T18:24:47.244Z,8.63
2023-05-06T18:27:13.780Z,7.25
2023-05-06T18:29:41.362Z,8.10
2023-05-06T18:32:08.246Z,7.85
2023-05-06T18:34:34.968Z,7.78
2023-05-06T18:37:01.558Z,8.00
2023-05-06T18:39:28.123Z,8.13
2023-05-06T18:41:54.679Z,8.45
2023-05-06T18:44:21.297Z,8.13
2023-05-06T18:46:47.854Z,8.15
2023-05-06T18:49:15.128Z,8.40
2023-05-06T18:51:41.774Z,8.60
2023-05-06T18:54:08.382Z,8.43
2023-05-06T18:56:36.388Z,7.47
2023-05-06T18:59:03.019Z,7.72
2023-05-06T19:01:29.876Z,8.20
2023-05-06T19:03:56.918Z,8.50
2023-05-06T19:06:23.849Z,7.70
2023-05-06T19:08:50.649Z,8.27
2023-05-06T19:11:21.269Z,8.75
2023-05-06T19:13:47.863Z,8.55
2023-05-06T19:16:15.050Z,7.97
2023-05-06T19:18:41.838Z,7.90
2023-05-06T19:21:15.207Z,8.65
2023-05-06T19:23:41.814Z,8.98
2023-05-06T19:26:11.192Z,9.23
2023-05-06T19:28:39.484Z,9.45
2023-05-06T19:31:09.383Z,9.70
2023-05-06T19:33:37.177Z,8.30
2023-05-06T19:36:04.413Z,8.55
2023-05-06T19:38:31.022Z,7.68
2023-05-06T19:40:57.679Z,8.18
2023-05-06T19:43:24.534Z,8.57
2023-05-06T19:45:51.265Z,9.00
2023-05-06T19:48:19.316Z,9.07
2023-05-06T19:50:45.892Z,10.20
2023-05-06T19:53:12.455Z,9.80
2023-05-06T19:55:38.983Z,9.13
2023-05-06T19:58:05.606Z,9.98
2023-05-06T20:00:32.517Z,9.80
2023-05-06T20:03:00.114Z,10.10
2023-05-06T20:05:31.464Z,9.93
2023-05-06T20:07:59.913Z,8.57
2023-05-06T20:10:27.376Z,7.18
2023-05-06T20:12:56.073Z,7.85
2023-05-06T20:15:24.053Z,7.72
2023-05-06T20:17:50.623Z,7.20
2023-05-06T20:20:17.567Z,7.87
2023-05-06T20:22:44.141Z,7.43
2023-05-06T20:25:13.290Z,8.68
2023-05-06T20:27:40.029Z,8.63
2023-05-06T20:30:08.123Z,8.63
2023-05-06T20:32:34.952Z,7.95
2023-05-06T20:35:01.644Z,7.82
2023-05-06T20:37:28.760Z,7.12
2023-05-06T20:39:55.337Z,6.47
2023-05-06T20:42:21.900Z,7.25
2023-05-06T20:44:53.745Z,6.90
2023-05-06T20:47:20.331Z,7.13
2023-05-06T20:49:46.904Z,7.00
2023-05-06T20:52:14.685Z,7.50
2023-05-06T20:54:42.857Z,7.53
2023-05-06T20:57:09.957Z,7.18
2023-05-06T20:59:36.839Z,7.80
2023-05-06T21:02:04.417Z,6.47
2023-05-06T21:04:31.360Z,6.57
2023-05-06T21:06:58.104Z,6.70
2023-05-06T21:09:26.729Z,7.37
2023-05-06T21:11:53.586Z,6.85
2023-05-06T21:14:21.694Z,7.05
2023-05-06T21:16:48.303Z,6.97
2023-05-06T21:19:14.880Z,7.37
2023-05-06T21:21:41.496Z,7.32
2023-05-06T21:24:08.094Z,6.85
2023-05-06T21:26:34.968Z,6.68
2023-05-06T21:29:01.562Z,6.55
2023-05-06T21:34:19.744Z,5.75
2023-05-06T21:36:46.429Z,6.12
2023-05-06T21:39:16.102Z,6.10
2023-05-06T21:41:42.755Z,5.95
2023-05-06T22:04:15.313Z,7.12
2023-05-06T22:06:42.039Z,6.55
2023-05-06T22:09:09.602Z,5.75
2023-05-06T22:11:38.243Z,6.60
2023-05-06T22:18:07.973Z,6.20
2023-05-06T22:20:36.587Z,6.55
2023-05-06T22:23:03.836Z,6.25
2023-05-06T22:25:30.430Z,6.55
2023-05-06T22:27:57.040Z,7.20
2023-05-06T22:30:26.651Z,6.78
2023-05-06T22:35:34.788Z,7.45
2023-05-06T22:38:01.379Z,7.05
2023-05-06T22:40:28.023Z,6.65
2023-05-06T22:42:55.234Z,7.37
2023-05-06T22:45:21.920Z,6.93
2023-05-06T22:54:05.987Z,7.18
2023-05-06T22:56:32.539Z,7.32
2023-05-06T22:58:59.077Z,7.93
2023-05-06T23:01:31.634Z,7.65
2023-05-06T23:04:01.103Z,7.43
2023-05-06T23:11:38.241Z,8.73
2023-05-06T23:14:04.981Z,7.28
2023-05-06T23:16:32.331Z,7.70
2023-05-06T23:18:58.997Z,7.05
2023-05-06T23:25:34.721Z,7.07
2023-05-06T23:28:01.320Z,7.70
2023-05-06T23:30:28.052Z,6.50
2023-05-06T23:32:54.781Z,6.65
2023-05-06T23:35:21.331Z,6.78
2023-05-06T23:37:47.905Z,6.45
2023-05-06T23:43:11.343Z,6.78
2023-05-06T23:45:39.743Z,6.87
2023-05-06T23:48:06.609Z,6.15
2023-05-06T23:50:33.280Z,5.65
2023-05-06T23:52:59.874Z,6.53
2023-05-06T23:55:26.798Z,6.00
